Terminal Aerodrome Forecast
Issued by NWS Grand Forks, ND

Home | Current Version | Previous Version | Text Only | Print | Product List | Glossary On
Versions: 1 2 3 4 5 6 7 8 9 10 11 12
000
FTUS43 KFGF 051123
TAFFAR
TAF
KFAR 051123Z 0512/0612 16011KT P6SM BKN120
     FM051900 16011KT P6SM VCTS BKN050CB
     FM052200 15011KT P6SM BKN150=

USA.gov is the U.S. government's official web portal to all federal, state and local government web resources and services.